Time;durP1;ratioP1;P1;durP2;ratioP2;P2;SDS_P1;SDS_P2;PMS_P1;PMS_P2;Temp;Humidity;BMP_temperature;BMP_pressure;BME280_temperature;BME280_humidity;BME280_pressure;Samples;Min_cycle;Max_cycle;Signal;HPM_P1;HPM_P2
2022/08/30 00:02:53;;;;;;;4.87;2.80;;;22.60;1.00;;;;;;5055172;28;20488;-74
2022/08/30 00:05:19;;;;;;;6.77;3.07;;;22.70;1.00;;;;;;5047326;28;20454;-74
2022/08/30 00:07:44;;;;;;;7.40;3.07;;;22.80;1.00;;;;;;5043801;28;20709;-75
2022/08/30 00:10:10;;;;;;;5.30;2.50;;;23.00;1.00;;;;;;5055934;28;20195;-74
2022/08/30 00:12:35;;;;;;;9.43;2.80;;;23.10;1.00;;;;;;5047229;28;20224;-75
2022/08/30 00:15:02;;;;;;;5.10;2.80;;;23.20;1.00;;;;;;5050768;28;20215;-75
2022/08/30 00:17:28;;;;;;;4.93;3.20;;;23.20;1.00;;;;;;5046269;28;20174;-75
2022/08/30 00:19:54;;;;;;;7.30;4.43;;;23.10;1.00;;;;;;5043222;28;20447;-74
2022/08/30 00:22:20;;;;;;;5.57;3.17;;;23.00;1.00;;;;;;5036804;28;20187;-74
2022/08/30 00:24:46;;;;;;;6.27;3.20;;;22.80;1.00;;;;;;5047869;28;20443;-74
2022/08/30 00:27:11;;;;;;;5.37;3.13;;;22.60;1.00;;;;;;5049560;28;20471;-74
2022/08/30 00:29:37;;;;;;;4.40;3.03;;;22.60;1.00;;;;;;5058523;28;20197;-75
2022/08/30 00:32:03;;;;;;;5.17;3.40;;;22.40;1.00;;;;;;5047158;28;20204;-74
2022/08/30 00:34:28;;;;;;;5.37;3.13;;;22.30;1.00;;;;;;5048006;28;20714;-74
2022/08/30 00:36:54;;;;;;;8.30;3.40;;;22.20;1.00;;;;;;5037799;28;20176;-74
2022/08/30 00:39:19;;;;;;;6.63;3.40;;;22.00;1.00;;;;;;5045107;28;20181;-75
2022/08/30 00:41:45;;;;;;;9.87;4.37;;;22.00;1.00;;;;;;5049346;28;20185;-74
2022/08/30 00:44:11;;;;;;;8.10;4.23;;;21.90;1.00;;;;;;5044162;28;20204;-74
2022/08/30 00:46:36;;;;;;;7.43;3.20;;;21.80;1.00;;;;;;5049002;28;20184;-75
2022/08/30 00:49:06;;;;;;;9.77;3.53;;;21.70;1.00;;;;;;5052284;28;20188;-74
2022/08/30 00:51:32;;;;;;;4.67;3.13;;;21.70;1.00;;;;;;5046073;28;20219;-75
2022/08/30 00:54:00;;;;;;;5.90;3.03;;;21.70;1.00;;;;;;5045853;28;20446;-74
2022/08/30 00:56:27;;;;;;;8.90;3.30;;;21.60;1.00;;;;;;5047567;28;20219;-74
2022/08/30 00:58:55;;;;;;;4.73;3.50;;;21.60;1.00;;;;;;5056586;28;20913;-75
2022/08/30 01:01:22;;;;;;;6.93;3.20;;;21.50;1.00;;;;;;5049231;28;20797;-74
2022/08/30 01:03:48;;;;;;;8.67;3.20;;;21.40;1.00;;;;;;5045813;28;20456;-75
2022/08/30 01:06:15;;;;;;;6.90;3.37;;;21.30;1.00;;;;;;5043182;28;20411;-74
2022/08/30 01:08:45;;;;;;;7.40;3.40;;;21.40;1.00;;;;;;5050600;28;20507;-74
2022/08/30 01:11:13;;;;;;;7.83;3.87;;;21.10;1.00;;;;;;5053867;28;20410;-74
2022/08/30 01:13:39;;;;;;;6.87;3.73;;;21.00;1.00;;;;;;5054657;28;20446;-74
2022/08/30 01:16:05;;;;;;;6.10;3.73;;;20.80;1.00;;;;;;5052459;28;20414;-74
2022/08/30 01:18:31;;;;;;;5.60;3.20;;;20.80;1.00;;;;;;5046473;28;20177;-74
2022/08/30 01:21:19;;;;;;;5.90;3.30;;;20.80;1.00;;;;;;5046862;28;20266;-74
2022/08/30 01:23:47;;;;;;;7.27;3.53;;;20.70;1.00;;;;;;5049733;28;20412;-74
2022/08/30 01:26:13;;;;;;;8.80;3.43;;;20.60;1.00;;;;;;5055475;28;20898;-75
2022/08/30 01:28:40;;;;;;;5.10;3.30;;;20.60;1.00;;;;;;5045448;28;20446;-74
2022/08/30 01:31:07;;;;;;;5.77;3.20;;;20.40;1.00;;;;;;5048545;28;20418;-74
2022/08/30 01:33:36;;;;;;;8.10;3.60;;;20.40;1.00;;;;;;5047712;28;20861;-74
2022/08/30 01:36:06;;;;;;;8.57;3.50;;;20.30;1.00;;;;;;5051552;28;20730;-74
2022/08/30 01:38:36;;;;;;;8.53;3.63;;;20.30;1.00;;;;;;5050757;28;20422;-74
2022/08/30 01:41:11;;;;;;;10.27;3.70;;;20.20;1.00;;;;;;5046455;28;20834;-74
2022/08/30 01:43:37;;;;;;;12.07;3.43;;;20.10;1.00;;;;;;5044961;28;20905;-74
2022/08/30 01:46:03;;;;;;;7.67;3.97;;;20.00;1.00;;;;;;5044081;28;20485;-74
2022/08/30 01:48:29;;;;;;;8.87;3.50;;;19.90;1.00;;;;;;5046497;28;20769;-74
2022/08/30 01:50:54;;;;;;;6.23;3.40;;;19.80;1.00;;;;;;5040006;28;20786;-74
2022/08/30 01:53:20;;;;;;;14.57;3.90;;;19.80;1.00;;;;;;5046106;28;20209;-74
2022/08/30 01:55:46;;;;;;;7.20;3.80;;;19.80;1.00;;;;;;5049541;28;20267;-74
2022/08/30 01:58:12;;;;;;;6.70;4.00;;;19.70;1.00;;;;;;5057180;28;20697;-74
2022/08/30 02:00:38;;;;;;;6.60;3.93;;;19.70;1.00;;;;;;5048996;28;20544;-74
2022/08/30 02:03:05;;;;;;;6.33;3.83;;;19.70;1.00;;;;;;5052143;28;20497;-73
2022/08/30 02:05:30;;;;;;;7.27;3.87;;;19.70;1.00;;;;;;5046244;28;20902;-74
2022/08/30 02:07:56;;;;;;;6.77;3.60;;;19.70;1.00;;;;;;5047456;28;20494;-74
2022/08/30 02:10:22;;;;;;;6.90;3.70;;;19.70;1.00;;;;;;5048189;28;20181;-74
2022/08/30 02:12:48;;;;;;;10.80;4.20;;;19.70;1.00;;;;;;5037890;28;20205;-74
2022/08/30 02:15:14;;;;;;;8.30;3.90;;;19.60;1.00;;;;;;5049198;28;20235;-74
2022/08/30 02:17:41;;;;;;;9.40;3.80;;;19.50;1.00;;;;;;5040306;28;20169;-74
2022/08/30 02:20:07;;;;;;;7.40;4.20;;;19.50;1.00;;;;;;5044835;28;20427;-74
2022/08/30 02:22:33;;;;;;;5.70;3.93;;;19.50;1.00;;;;;;5047313;28;20805;-74
2022/08/30 02:24:59;;;;;;;8.07;3.80;;;19.50;1.00;;;;;;5052854;28;20454;-74
2022/08/30 02:27:25;;;;;;;6.40;4.27;;;19.50;1.00;;;;;;5056336;28;20419;-74
2022/08/30 02:29:51;;;;;;;8.70;4.30;;;19.50;1.00;;;;;;5050558;28;20430;-74
2022/08/30 02:32:17;;;;;;;6.20;4.07;;;19.60;1.00;;;;;;5052847;28;20802;-74
2022/08/30 02:34:43;;;;;;;6.93;3.83;;;19.60;1.00;;;;;;5060315;28;20571;-74
2022/08/30 02:37:09;;;;;;;8.10;4.00;;;19.60;1.00;;;;;;5051994;28;20162;-74
2022/08/30 02:39:35;;;;;;;12.87;4.43;;;19.50;1.00;;;;;;5061036;28;20411;-74
2022/08/30 02:42:00;;;;;;;9.87;4.30;;;19.50;1.00;;;;;;5047875;28;20335;-74
2022/08/30 02:44:26;;;;;;;7.77;4.10;;;19.50;1.00;;;;;;5045124;28;20223;-74
2022/08/30 02:46:51;;;;;;;10.53;4.50;;;19.50;1.00;;;;;;5048634;28;20250;-74
2022/08/30 02:49:17;;;;;;;7.03;3.57;;;19.50;1.00;;;;;;5039429;28;20180;-74
2022/08/30 02:51:42;;;;;;;10.17;4.50;;;19.50;1.00;;;;;;5046301;28;20271;-73
2022/08/30 02:54:08;;;;;;;15.30;4.10;;;19.40;1.00;;;;;;5047538;28;20197;-74
2022/08/30 02:56:34;;;;;;;6.70;3.90;;;19.40;1.00;;;;;;5054454;28;20173;-74
2022/08/30 02:58:59;;;;;;;6.00;4.17;;;19.50;1.00;;;;;;5042936;28;20252;-74
2022/08/30 03:01:25;;;;;;;8.93;4.10;;;19.50;1.00;;;;;;5057056;28;20180;-74
2022/08/30 03:03:50;;;;;;;5.73;3.90;;;19.50;1.00;;;;;;5048760;28;20675;-74
2022/08/30 03:06:16;;;;;;;8.97;4.20;;;19.40;1.00;;;;;;5060190;28;20184;-74
2022/08/30 03:08:42;;;;;;;6.67;4.10;;;19.40;1.00;;;;;;5049881;28;20254;-74
2022/08/30 03:11:08;;;;;;;7.00;4.30;;;19.40;1.00;;;;;;5059808;28;20260;-74
2022/08/30 03:13:33;;;;;;;8.93;4.37;;;19.30;1.00;;;;;;5050222;28;20590;-74
2022/08/30 03:15:59;;;;;;;11.27;4.20;;;19.30;1.00;;;;;;5060438;28;20176;-74
2022/08/30 03:18:25;;;;;;;6.90;4.50;;;19.20;1.00;;;;;;5051624;28;20169;-74
2022/08/30 03:20:51;;;;;;;10.37;4.57;;;19.30;1.00;;;;;;5045808;28;20170;-74
2022/08/30 03:23:18;;;;;;;10.20;4.27;;;19.00;1.00;;;;;;5043290;28;20423;-74
2022/08/30 03:25:44;;;;;;;8.13;4.37;;;19.00;1.00;;;;;;5047209;28;20450;-74
2022/08/30 03:28:09;;;;;;;6.40;4.40;;;18.90;1.00;;;;;;5055667;28;20641;-74
2022/08/30 03:30:35;;;;;;;6.80;3.97;;;18.80;1.00;;;;;;5053351;28;20431;-74
2022/08/30 03:33:02;;;;;;;10.60;4.33;;;18.70;1.00;;;;;;5042845;28;20232;-74
2022/08/30 03:35:27;;;;;;;6.30;4.20;;;18.70;1.00;;;;;;5047685;28;20193;-74
2022/08/30 03:37:53;;;;;;;10.87;4.83;;;18.50;1.00;;;;;;5049354;28;20427;-74
2022/08/30 03:40:20;;;;;;;6.87;3.67;;;18.40;1.00;;;;;;5056979;28;20256;-74
2022/08/30 03:42:46;;;;;;;7.63;4.00;;;18.40;1.00;;;;;;5036112;28;20251;-74
2022/08/30 03:45:14;;;;;;;6.90;4.10;;;18.30;1.00;;;;;;5048380;28;20455;-74
2022/08/30 03:47:40;;;;;;;7.63;3.90;;;18.30;1.00;;;;;;5050063;28;20434;-74
2022/08/30 03:50:06;;;;;;;6.43;3.87;;;18.30;1.00;;;;;;5050558;28;20946;-74
2022/08/30 03:52:32;;;;;;;10.00;4.80;;;18.30;1.00;;;;;;5046007;28;20208;-74
2022/08/30 03:54:59;;;;;;;6.57;4.10;;;18.20;1.00;;;;;;5051282;28;20434;-74
2022/08/30 03:57:26;;;;;;;10.67;4.50;;;18.20;1.00;;;;;;5045823;28;20820;-74
2022/08/30 03:59:51;;;;;;;5.90;4.27;;;18.10;1.00;;;;;;5048436;28;20416;-74
2022/08/30 04:02:17;;;;;;;8.30;4.40;;;18.10;1.00;;;;;;5047377;28;20960;-74
2022/08/30 04:04:42;;;;;;;6.57;4.37;;;18.00;1.00;;;;;;5048293;28;20226;-74
2022/08/30 04:07:08;;;;;;;14.37;4.40;;;18.30;1.00;;;;;;5045777;28;20266;-74
2022/08/30 04:09:33;;;;;;;7.63;4.23;;;17.90;1.00;;;;;;5042027;28;20188;-74
2022/08/30 04:11:59;;;;;;;12.63;4.53;;;17.80;1.00;;;;;;5048088;28;20197;-74
2022/08/30 04:14:25;;;;;;;6.07;4.07;;;17.70;1.00;;;;;;5045961;28;20196;-74
2022/08/30 04:16:50;;;;;;;6.53;4.13;;;17.70;1.00;;;;;;5059109;28;20173;-74
2022/08/30 04:19:16;;;;;;;6.23;3.80;;;17.70;1.00;;;;;;5043782;28;20200;-74
2022/08/30 04:21:43;;;;;;;8.83;4.33;;;17.60;1.00;;;;;;5044590;28;20234;-74
2022/08/30 04:24:12;;;;;;;9.10;3.97;;;17.50;1.00;;;;;;5047698;28;20813;-73
2022/08/30 04:26:38;;;;;;;5.17;4.10;;;17.50;1.00;;;;;;5047921;28;20794;-72
2022/08/30 04:29:03;;;;;;;6.97;4.30;;;17.60;1.00;;;;;;5058688;28;20423;-73
2022/08/30 04:31:30;;;;;;;10.40;3.97;;;17.50;1.00;;;;;;5048655;28;20241;-73
2022/08/30 04:33:55;;;;;;;8.10;4.20;;;17.50;1.00;;;;;;5043052;28;20271;-73
2022/08/30 04:36:21;;;;;;;5.73;4.00;;;17.60;1.00;;;;;;5050787;28;20420;-73
2022/08/30 04:38:47;;;;;;;6.30;3.97;;;17.50;1.00;;;;;;5048631;28;20207;-73
2022/08/30 04:41:15;;;;;;;7.77;4.40;;;17.60;1.00;;;;;;5056778;28;20242;-73
2022/08/30 04:43:45;;;;;;;7.73;4.23;;;17.60;1.00;;;;;;5048429;28;20235;-72
2022/08/30 04:46:12;;;;;;;6.60;4.40;;;17.60;1.00;;;;;;5046470;28;20421;-71
2022/08/30 04:48:38;;;;;;;5.60;4.27;;;17.50;1.00;;;;;;5050752;28;21033;-73
2022/08/30 04:51:09;;;;;;;7.77;4.43;;;17.50;1.00;;;;;;5045043;28;20493;-73
2022/08/30 04:53:35;;;;;;;9.43;4.40;;;17.40;1.00;;;;;;5047873;28;20643;-72
2022/08/30 04:56:05;;;;;;;9.20;4.53;;;17.40;1.00;;;;;;5041867;28;20436;-73
2022/08/30 04:58:31;;;;;;;9.17;4.50;;;17.50;1.00;;;;;;5037856;28;20914;-73
2022/08/30 05:00:56;;;;;;;8.83;4.17;;;17.50;1.00;;;;;;5048018;28;20459;-73
2022/08/30 05:03:22;;;;;;;11.57;4.60;;;17.60;1.00;;;;;;5047681;28;20185;-73
2022/08/30 05:05:49;;;;;;;5.60;4.50;;;17.60;1.00;;;;;;5047712;28;20184;-74
2022/08/30 05:08:17;;;;;;;8.10;4.07;;;17.70;1.00;;;;;;5043834;28;20185;-73
2022/08/30 05:10:46;;;;;;;6.33;4.17;;;17.80;1.00;;;;;;5056549;28;20501;-74
2022/08/30 05:13:12;;;;;;;6.50;4.30;;;17.80;1.00;;;;;;5048624;28;20455;-73
2022/08/30 05:15:39;;;;;;;9.63;4.73;;;17.80;1.00;;;;;;5052221;28;20439;-74
2022/08/30 05:18:06;;;;;;;6.70;4.60;;;17.80;1.00;;;;;;5047619;28;20180;-73
2022/08/30 05:20:32;;;;;;;6.90;4.10;;;17.90;1.00;;;;;;5041625;28;20894;-73
2022/08/30 05:22:57;;;;;;;8.17;4.73;;;17.80;1.00;;;;;;5052308;28;20415;-74
2022/08/30 05:25:26;;;;;;;10.03;4.70;;;17.80;1.00;;;;;;5052813;28;20261;-73
2022/08/30 05:27:52;;;;;;;9.80;4.70;;;17.90;1.00;;;;;;5051468;28;20223;-74
2022/08/30 05:30:19;;;;;;;7.17;4.50;;;17.90;1.00;;;;;;5051680;28;20799;-73
2022/08/30 05:32:44;;;;;;;6.40;4.07;;;17.90;1.00;;;;;;5056805;28;20544;-74
2022/08/30 05:35:12;;;;;;;10.63;4.97;;;17.90;1.00;;;;;;5062053;28;20445;-73
2022/08/30 05:37:39;;;;;;;6.73;3.83;;;18.00;1.00;;;;;;5057262;28;20194;-73
2022/08/30 05:40:06;;;;;;;8.97;4.70;;;18.10;1.00;;;;;;5056684;28;20426;-75
2022/08/30 05:42:35;;;;;;;7.80;4.43;;;18.10;1.00;;;;;;5037514;28;20879;-72
2022/08/30 05:45:03;;;;;;;8.67;4.90;;;18.20;1.00;;;;;;5046458;28;20841;-73
2022/08/30 05:47:28;;;;;;;10.63;4.53;;;18.30;1.00;;;;;;5046650;28;20813;-73
2022/08/30 05:49:54;;;;;;;6.40;3.93;;;18.50;1.00;;;;;;5041907;28;20435;-72
2022/08/30 05:52:19;;;;;;;9.70;4.38;;;18.60;1.00;;;;;;5035176;28;20432;-73
2022/08/30 05:54:50;;;;;;;7.63;4.27;;;18.80;1.00;;;;;;5045937;28;20193;-73
2022/08/30 05:57:16;;;;;;;6.47;3.90;;;18.90;1.00;;;;;;5047879;28;20207;-73
2022/08/30 05:59:42;;;;;;;10.40;5.07;;;19.00;1.00;;;;;;5047841;28;20500;-73
2022/08/30 06:02:08;;;;;;;6.50;4.70;;;19.20;1.00;;;;;;5060558;28;20174;-73
2022/08/30 06:04:35;;;;;;;8.30;4.40;;;19.30;1.00;;;;;;5055062;28;20228;-74
2022/08/30 06:07:01;;;;;;;5.80;4.23;;;19.40;1.00;;;;;;5030309;28;20205;-73
2022/08/30 06:09:27;;;;;;;7.07;4.30;;;19.50;1.00;;;;;;5039271;28;20484;-73
2022/08/30 06:11:52;;;;;;;12.47;4.50;;;19.50;1.00;;;;;;5033921;28;20205;-73
2022/08/30 06:14:18;;;;;;;7.87;4.70;;;19.60;1.00;;;;;;5038683;28;20280;-73
2022/08/30 06:16:44;;;;;;;10.03;4.90;;;19.80;1.00;;;;;;5044708;28;20188;-73
2022/08/30 06:19:11;;;;;;;9.67;4.80;;;19.90;1.00;;;;;;5043672;28;20256;-73
2022/08/30 06:21:38;;;;;;;7.00;4.70;;;20.00;1.00;;;;;;5038710;28;20431;-73
2022/08/30 06:24:05;;;;;;;9.80;4.90;;;20.10;1.00;;;;;;5041953;28;20543;-72
2022/08/30 06:26:35;;;;;;;9.03;4.60;;;20.10;1.00;;;;;;5044174;28;20502;-72
2022/08/30 06:29:01;;;;;;;13.20;5.30;;;20.20;1.00;;;;;;5039794;28;20435;-73
2022/08/30 06:31:26;;;;;;;15.93;5.37;;;20.30;1.00;;;;;;5045000;28;20506;-73
2022/08/30 06:33:52;;;;;;;11.47;4.40;;;20.40;1.00;;;;;;5040303;28;20224;-72
2022/08/30 06:36:20;;;;;;;11.20;4.23;;;20.60;1.00;;;;;;5046287;28;20181;-73
2022/08/30 06:38:50;;;;;;;8.13;4.50;;;20.80;1.00;;;;;;5037261;28;20169;-72
2022/08/30 06:41:18;;;;;;;11.17;4.80;;;21.00;1.00;;;;;;5040108;28;20969;-73
2022/08/30 06:43:45;;;;;;;7.53;4.53;;;21.20;1.00;;;;;;5043228;28;20494;-73
2022/08/30 06:46:14;;;;;;;10.70;5.30;;;21.40;1.00;;;;;;5043456;28;20913;-73
2022/08/30 06:48:39;;;;;;;6.30;4.40;;;21.60;1.00;;;;;;5038346;28;20423;-72
2022/08/30 06:51:06;;;;;;;9.53;4.43;;;21.80;1.00;;;;;;5044765;28;20430;-72
2022/08/30 06:53:32;;;;;;;7.40;4.30;;;21.90;1.00;;;;;;5043908;28;20686;-73
2022/08/30 06:55:59;;;;;;;7.17;4.20;;;22.10;1.00;;;;;;5039202;28;20437;-73
2022/08/30 06:58:26;;;;;;;10.93;3.90;;;22.20;1.00;;;;;;5040442;28;20459;-72
2022/08/30 07:00:52;;;;;;;12.47;4.90;;;22.50;1.00;;;;;;5041151;28;20521;-71
2022/08/30 07:03:18;;;;;;;10.53;4.33;;;22.50;1.00;;;;;;5041116;28;20953;-72
2022/08/30 07:05:43;;;;;;;9.30;4.20;;;22.60;1.00;;;;;;5044707;28;20684;-73
2022/08/30 07:08:09;;;;;;;9.93;4.00;;;22.60;1.00;;;;;;5054924;28;20199;-73
2022/08/30 07:10:38;;;;;;;5.93;4.20;;;22.90;1.00;;;;;;5045289;28;20212;-73
2022/08/30 07:13:03;;;;;;;9.00;4.20;;;23.30;1.00;;;;;;5038359;28;20203;-72
2022/08/30 07:15:29;;;;;;;9.13;4.20;;;23.60;1.00;;;;;;5042961;28;20480;-73
2022/08/30 07:20:38;;;;;;;8.70;4.23;;;24.20;1.00;;;;;;5042776;28;20678;-73
2022/08/30 07:23:04;;;;;;;14.20;4.57;;;24.30;1.00;;;;;;5051567;28;20438;-73
2022/08/30 07:25:29;;;;;;;8.00;3.90;;;24.50;1.00;;;;;;5038417;28;20209;-72
2022/08/30 07:27:55;;;;;;;9.40;4.13;;;24.70;1.00;;;;;;5047153;28;20577;-73
2022/08/30 07:30:21;;;;;;;9.53;4.17;;;24.90;1.00;;;;;;5037471;28;20224;-73
2022/08/30 07:32:48;;;;;;;8.30;4.57;;;25.10;1.00;;;;;;5043952;28;20489;-73
2022/08/30 07:35:13;;;;;;;14.07;4.10;;;25.30;1.00;;;;;;5041836;28;20391;-73
2022/08/30 07:37:39;;;;;;;9.00;4.20;;;25.60;1.00;;;;;;5045715;28;21064;-73
2022/08/30 07:40:05;;;;;;;8.20;4.13;;;26.10;1.00;;;;;;5042664;28;20234;-73
2022/08/30 07:42:31;;;;;;;9.50;4.63;;;26.40;1.00;;;;;;5043980;28;20295;-72
2022/08/30 07:44:56;;;;;;;13.77;4.30;;;26.50;1.00;;;;;;5041047;28;20452;-74
2022/08/30 07:47:22;;;;;;;11.70;4.40;;;26.60;1.00;;;;;;5045675;28;20176;-74
2022/08/30 07:49:47;;;;;;;9.40;4.20;;;26.80;1.00;;;;;;5048812;28;20196;-74
2022/08/30 07:52:13;;;;;;;10.87;4.30;;;27.50;1.00;;;;;;5048883;28;20215;-73
2022/08/30 07:54:38;;;;;;;10.33;4.17;;;28.50;1.00;;;;;;5052913;28;20250;-74
2022/08/30 07:57:04;;;;;;;10.38;4.60;;;28.90;1.00;;;;;;5034210;28;20268;-74
2022/08/30 07:59:29;;;;;;;10.65;4.38;;;29.20;1.00;;;;;;5039658;28;20216;-74
2022/08/30 08:01:55;;;;;;;5.57;3.88;;;29.50;1.00;;;;;;5052117;28;20463;-74
2022/08/30 08:04:20;;;;;;;15.65;4.15;;;29.70;1.00;;;;;;5043062;28;20232;-74
2022/08/30 08:06:46;;;;;;;5.68;3.95;;;30.20;1.00;;;;;;5037563;28;20208;-73
2022/08/30 08:09:12;;;;;;;14.57;4.20;;;30.80;1.00;;;;;;5045850;28;20663;-74
2022/08/30 08:11:40;;;;;;;8.43;4.10;;;31.20;1.00;;;;;;5037570;28;20219;-74
2022/08/30 08:14:06;;;;;;;9.77;3.72;;;31.30;1.00;;;;;;5044435;28;20279;-75
2022/08/30 08:16:34;;;;;;;8.35;3.63;;;31.70;1.00;;;;;;5042565;28;21059;-74
2022/08/30 08:19:00;;;;;;;8.38;4.30;;;31.50;1.00;;;;;;5043608;28;20305;-74
2022/08/30 08:21:26;;;;;;;12.52;4.50;;;31.20;1.00;;;;;;5036005;28;20177;-74
2022/08/30 08:23:51;;;;;;;10.48;4.10;;;31.00;1.00;;;;;;5042131;28;20203;-74
2022/08/30 08:26:18;;;;;;;9.63;4.22;;;31.60;1.00;;;;;;5043225;28;20172;-74
2022/08/30 08:28:45;;;;;;;6.45;3.88;;;32.60;1.00;;;;;;5048687;28;20559;-74
2022/08/30 08:31:14;;;;;;;11.10;4.00;;;33.50;1.00;;;;;;5048458;28;20203;-75
2022/08/30 08:33:39;;;;;;;8.50;4.38;;;34.50;1.00;;;;;;5042888;28;20181;-74
2022/08/30 08:36:05;;;;;;;13.18;4.40;;;34.40;1.00;;;;;;5045378;28;20263;-74
2022/08/30 08:38:30;;;;;;;8.30;3.80;;;34.40;1.00;;;;;;5043964;28;20246;-74
2022/08/30 08:41:22;;;;;;;14.73;3.90;;;34.40;1.00;;;;;;5036128;28;20705;-74
2022/08/30 08:43:47;;;;;;;13.23;3.92;;;34.60;1.00;;;;;;5042578;28;20204;-74
2022/08/30 08:46:31;;;;;;;85.05;13.18;;;34.70;1.00;;;;;;5043690;28;20184;-74
2022/08/30 08:49:05;;;;;;;14.95;5.22;;;34.70;1.00;;;;;;5043122;28;20208;-74
2022/08/30 08:54:37;;;;;;;15.60;4.93;;;35.10;1.00;;;;;;5053151;28;20476;-74
2022/08/30 08:57:03;;;;;;;14.07;4.78;;;35.70;1.00;;;;;;5041187;28;20176;-74
2022/08/30 08:59:29;;;;;;;15.38;4.13;;;36.00;1.00;;;;;;5038168;28;20203;-75
2022/08/30 09:02:01;;;;;;;15.20;4.00;;;36.30;1.00;;;;;;5046202;28;20211;-74
2022/08/30 09:04:34;;;;;;;9.40;3.88;;;36.20;1.00;;;;;;5042411;28;20188;-75
2022/08/30 09:07:24;;;;;;;7.35;3.63;;;35.40;1.00;;;;;;5047174;28;20168;-74
2022/08/30 09:09:50;;;;;;;9.15;4.50;;;34.30;1.00;;;;;;5035456;28;20177;-74
2022/08/30 09:12:16;;;;;;;9.20;4.03;;;33.50;1.00;;;;;;5039487;28;20211;-74
2022/08/30 09:14:51;;;;;;;11.90;4.63;;;33.30;1.00;;;;;;5039847;28;20208;-74
2022/08/30 09:17:18;;;;;;;10.68;4.03;;;33.10;1.00;;;;;;5044705;28;20169;-74
2022/08/30 09:19:45;;;;;;;9.57;4.10;;;33.30;1.00;;;;;;5040112;28;20189;-74
2022/08/30 09:22:24;;;;;;;7.38;4.25;;;33.20;1.00;;;;;;5041471;28;20210;-74
2022/08/30 09:24:53;;;;;;;8.90;4.00;;;33.00;1.00;;;;;;5045959;28;20215;-74
2022/08/30 09:27:23;;;;;;;8.82;4.38;;;33.20;1.00;;;;;;5048759;28;20602;-74
2022/08/30 09:29:54;;;;;;;12.40;4.25;;;33.50;1.00;;;;;;5049103;28;20259;-74
2022/08/30 09:32:34;;;;;;;10.82;4.43;;;34.10;1.00;;;;;;5045073;28;20283;-74
2022/08/30 09:34:59;;;;;;;8.20;4.13;;;34.80;1.00;;;;;;5042920;28;20208;-74
2022/08/30 09:37:39;;;;;;;16.85;5.43;;;35.00;1.00;;;;;;5038111;28;20184;-74
2022/08/30 09:40:11;;;;;;;7.10;4.50;;;34.40;1.00;;;;;;5031900;28;20191;-74
2022/08/30 09:42:38;;;;;;;13.63;4.50;;;33.70;1.00;;;;;;5033316;28;20713;-74
2022/08/30 09:45:09;;;;;;;9.02;4.40;;;34.20;1.00;;;;;;5043201;28;20203;-74
2022/08/30 09:47:42;;;;;;;12.07;4.40;;;34.10;1.00;;;;;;5048094;28;20184;-74
2022/08/30 09:50:11;;;;;;;11.18;4.57;;;33.80;1.00;;;;;;5040561;28;20172;-74
2022/08/30 09:52:54;;;;;;;10.82;4.50;;;33.60;1.00;;;;;;5045309;28;20212;-74
2022/08/30 09:55:27;;;;;;;11.82;4.22;;;34.40;1.00;;;;;;5036504;28;20199;-74
2022/08/30 09:58:14;;;;;;;9.68;3.50;;;36.50;1.00;;;;;;5047797;28;20208;-74
2022/08/30 10:00:50;;;;;;;11.90;3.92;;;38.80;1.00;;;;;;5038635;28;20276;-74
2022/08/30 10:03:25;;;;;;;12.93;4.25;;;39.00;1.00;;;;;;5034058;28;20176;-75
2022/08/30 10:06:03;;;;;;;10.80;3.72;;;37.60;1.00;;;;;;5034066;28;20417;-74
2022/08/30 10:08:50;;;;;;;6.90;3.80;;;36.50;1.00;;;;;;5037964;28;20185;-74
2022/08/30 10:11:50;;;;;;;6.30;3.75;;;36.20;1.00;;;;;;5035237;28;20203;-75
2022/08/30 10:14:42;;;;;;;7.40;3.80;;;37.40;1.00;;;;;;5033800;28;20239;-74
2022/08/30 10:17:21;;;;;;;7.22;3.78;;;39.10;1.00;;;;;;5040030;28;20543;-75
2022/08/30 10:20:08;;;;;;;9.05;4.00;;;41.10;1.00;;;;;;5048434;28;20238;-75
2022/08/30 10:22:39;;;;;;;5.07;3.40;;;42.30;1.00;;;;;;5056612;28;20171;-75
2022/08/30 10:25:18;;;;;;;4.95;3.30;;;43.00;1.00;;;;;;5040106;28;20203;-75
2022/08/30 10:27:55;;;;;;;8.68;2.97;;;43.80;1.00;;;;;;5041832;28;20212;-75
2022/08/30 10:30:22;;;;;;;6.60;3.20;;;44.10;1.00;;;;;;5039998;28;20207;-75
2022/08/30 10:33:10;;;;;;;8.70;2.80;;;44.40;1.00;;;;;;5043195;28;20200;-75
2022/08/30 10:35:42;;;;;;;17.60;3.40;;;44.70;1.00;;;;;;5043619;28;20250;-75
2022/08/30 10:38:20;;;;;;;4.22;3.03;;;45.00;1.00;;;;;;5048444;28;20168;-75
2022/08/30 10:43:47;;;;;;;4.50;3.20;;;45.80;1.00;;;;;;5047541;28;20735;-75
2022/08/30 10:46:19;;;;;;;7.07;3.30;;;45.80;1.00;;;;;;5050333;28;20210;-75
2022/08/30 10:48:47;;;;;;;6.07;3.22;;;45.10;1.00;;;;;;5050322;28;20204;-75
2022/08/30 10:51:26;;;;;;;11.32;3.90;;;44.90;1.00;;;;;;5048820;28;20230;-75
2022/08/30 10:53:56;;;;;;;5.80;3.53;;;43.90;1.00;;;;;;5049614;28;20200;-75
2022/08/30 10:56:25;;;;;;;4.82;2.83;;;42.30;1.00;;;;;;5051580;28;20210;-75
2022/08/30 10:58:53;;;;;;;5.47;3.15;;;42.90;1.00;;;;;;5043885;28;20283;-75
2022/08/30 11:01:30;;;;;;;11.07;3.28;;;44.60;1.00;;;;;;5042161;28;20179;-75
2022/08/30 11:04:15;;;;;;;3.92;3.05;;;46.20;1.00;;;;;;5034384;28;20555;-75
2022/08/30 11:06:59;;;;;;;6.35;3.20;;;47.30;1.00;;;;;;5035971;28;20668;-75
2022/08/30 11:09:43;;;;;;;8.50;3.30;;;46.20;1.00;;;;;;5040883;28;20540;-75
2022/08/30 11:12:31;;;;;;;6.70;3.35;;;44.90;1.00;;;;;;5044065;28;20201;-75
2022/08/30 11:14:57;;;;;;;10.80;3.60;;;45.10;1.00;;;;;;5049577;28;20201;-75
2022/08/30 11:17:51;;;;;;;6.88;3.72;;;44.80;1.00;;;;;;5043632;28;20226;-75
2022/08/30 11:20:38;;;;;;;7.70;3.92;;;44.60;1.00;;;;;;5048169;28;20186;-75
2022/08/30 11:23:23;;;;;;;7.28;3.70;;;43.50;1.00;;;;;;5056372;28;20301;-75
2022/08/30 11:25:50;;;;;;;5.95;3.72;;;43.20;1.00;;;;;;5047837;28;20212;-75
2022/08/30 11:28:34;;;;;;;4.60;3.40;;;43.80;1.00;;;;;;5051332;28;20199;-75
2022/08/30 11:31:09;;;;;;;7.20;3.55;;;44.20;1.00;;;;;;5045272;28;20176;-75
2022/08/30 11:33:48;;;;;;;7.07;3.38;;;44.40;1.00;;;;;;5045108;28;20303;-75
2022/08/30 11:36:37;;;;;;;6.55;3.40;;;44.40;1.00;;;;;;5048628;28;20689;-74
2022/08/30 11:39:12;;;;;;;5.80;3.40;;;44.40;1.00;;;;;;5043174;28;20176;-75
2022/08/30 11:41:43;;;;;;;5.85;3.20;;;44.70;1.00;;;;;;5043752;28;20176;-75
2022/08/30 11:44:20;;;;;;;7.63;3.50;;;44.40;1.00;;;;;;5042022;28;20193;-75
2022/08/30 11:46:48;;;;;;;5.03;3.20;;;43.50;1.00;;;;;;5041296;28;20177;-75
2022/08/30 11:49:32;;;;;;;5.25;3.80;;;41.60;1.00;;;;;;5046681;28;20181;-75
2022/08/30 11:52:19;;;;;;;6.93;3.70;;;39.50;1.00;;;;;;5058255;28;20199;-75
2022/08/30 11:54:53;;;;;;;7.07;4.03;;;39.30;1.00;;;;;;5042463;28;20203;-75
2022/08/30 11:57:26;;;;;;;8.55;4.07;;;39.70;1.00;;;;;;5048553;28;20264;-74
2022/08/30 12:00:05;;;;;;;6.35;3.80;;;39.70;1.00;;;;;;5041742;28;20200;-75
2022/08/30 12:02:58;;;;;;;6.70;4.03;;;40.80;1.00;;;;;;5047307;28;20200;-75
2022/08/30 12:05:45;;;;;;;7.25;4.30;;;42.90;1.00;;;;;;5044709;28;20239;-75
2022/08/30 12:08:19;;;;;;;5.63;3.83;;;43.50;1.00;;;;;;5041886;28;20188;-75
2022/08/30 12:10:49;;;;;;;8.93;3.67;;;42.60;1.00;;;;;;5046572;28;20262;-75
2022/08/30 12:13:33;;;;;;;5.38;3.95;;;42.60;1.00;;;;;;5045007;28;20399;-75
2022/08/30 12:16:06;;;;;;;5.05;3.60;;;42.10;1.00;;;;;;5045060;28;20168;-75
2022/08/30 12:18:44;;;;;;;6.07;3.97;;;42.40;1.00;;;;;;5047813;28;20670;-75
2022/08/30 12:21:18;;;;;;;6.18;4.10;;;43.20;1.00;;;;;;5044195;28;20195;-75
2022/08/30 12:24:06;;;;;;;5.55;3.50;;;44.20;1.00;;;;;;5056792;28;20645;-75
2022/08/30 12:26:38;;;;;;;4.47;3.45;;;45.60;1.00;;;;;;5042629;28;20609;-75
2022/08/30 12:29:19;;;;;;;6.15;4.00;;;46.50;1.00;;;;;;5042269;28;20647;-75
2022/08/30 12:31:57;;;;;;;5.13;3.75;;;46.00;1.00;;;;;;5046157;28;20287;-75
2022/08/30 12:34:35;;;;;;;5.55;3.80;;;44.60;1.00;;;;;;5045658;28;20196;-75
2022/08/30 12:37:18;;;;;;;4.00;3.50;;;45.20;1.00;;;;;;5041680;28;20246;-75
2022/08/30 12:39:44;;;;;;;6.95;4.00;;;45.80;1.00;;;;;;5040209;28;20177;-75
2022/08/30 12:42:23;;;;;;;4.93;3.45;;;46.20;1.00;;;;;;5043847;28;20185;-75
2022/08/30 12:44:56;;;;;;;5.40;3.35;;;46.70;1.00;;;;;;5048986;28;20200;-75
2022/08/30 12:47:27;;;;;;;4.70;3.83;;;47.50;1.00;;;;;;5045787;28;20185;-76
2022/08/30 12:49:53;;;;;;;5.32;3.72;;;48.60;1.00;;;;;;5040719;28;20185;-75
2022/08/30 12:52:30;;;;;;;8.98;3.80;;;48.60;1.00;;;;;;5049510;28;20679;-75
2022/08/30 12:55:06;;;;;;;6.30;4.00;;;47.20;1.00;;;;;;5046483;28;20278;-75
2022/08/30 12:57:38;;;;;;;8.88;4.15;;;45.90;1.00;;;;;;5039600;28;20188;-76
2022/08/30 13:00:08;;;;;;;4.65;3.67;;;46.70;1.00;;;;;;5035275;28;20706;-75
2022/08/30 13:02:42;;;;;;;4.90;3.45;;;47.30;1.00;;;;;;5041326;28;20177;-75
2022/08/30 13:05:27;;;;;;;6.15;3.25;;;46.70;1.00;;;;;;5039070;28;20273;-75
2022/08/30 13:08:12;;;;;;;3.80;3.35;;;46.40;1.00;;;;;;5037818;28;20696;-75
2022/08/30 13:10:52;;;;;;;5.45;3.65;;;46.50;1.00;;;;;;5048913;28;20184;-75
2022/08/30 13:13:32;;;;;;;4.85;4.05;;;46.80;1.00;;;;;;5050782;28;20203;-75
2022/08/30 13:16:26;;;;;;;5.63;3.70;;;46.90;1.00;;;;;;5049302;28;20199;-75
2022/08/30 13:19:13;;;;;;;6.72;3.75;;;46.90;1.00;;;;;;5044076;28;20203;-75